createdAt,value
2022-09-21T00:01:24.298Z,10.60
2022-09-21T00:03:56.698Z,10.50
2022-09-21T00:06:26.048Z,10.50
2022-09-21T00:08:53.891Z,10.40
2022-09-21T00:11:25.023Z,10.40
2022-09-21T00:13:55.289Z,10.40
2022-09-21T00:16:22.991Z,10.40
2022-09-21T00:18:50.246Z,10.20
2022-09-21T00:21:18.303Z,10.10
2022-09-21T00:23:45.808Z,10.10
2022-09-21T00:26:15.999Z,10.10
2022-09-21T00:28:44.724Z,10.10
2022-09-21T00:31:14.415Z,10.20
2022-09-21T00:33:42.122Z,10.30
2022-09-21T00:36:13.213Z,10.30
2022-09-21T00:38:40.745Z,10.30
2022-09-21T00:41:09.489Z,10.20
2022-09-21T00:43:40.109Z,10.20
2022-09-21T00:46:27.158Z,10.20
2022-09-21T00:48:54.553Z,10.10
2022-09-21T00:51:21.854Z,10.10
2022-09-21T00:53:54.285Z,10.00
2022-09-21T00:56:21.834Z,10.00
2022-09-21T00:58:52.094Z,10.00
2022-09-21T01:01:19.979Z,10.00
2022-09-21T01:03:49.278Z,10.00
2022-09-21T01:06:19.430Z,10.00
2022-09-21T01:08:52.868Z,9.90
2022-09-21T01:11:54.554Z,10.00
2022-09-21T01:14:37.000Z,10.00
2022-09-21T01:17:11.195Z,10.10
2022-09-21T01:19:47.577Z,10.10
2022-09-21T01:22:33.233Z,10.10
2022-09-21T01:25:18.922Z,10.10
2022-09-21T01:28:17.233Z,10.10
2022-09-21T01:30:48.926Z,10.10
2022-09-21T01:33:26.467Z,10.10
2022-09-21T01:35:58.298Z,10.00
2022-09-21T01:38:38.905Z,10.00
2022-09-21T01:41:08.494Z,9.90
2022-09-21T01:43:40.503Z,9.90
2022-09-21T01:46:14.012Z,9.90
2022-09-21T01:48:46.664Z,9.80
2022-09-21T01:51:17.172Z,9.80
2022-09-21T01:53:59.263Z,9.70
2022-09-21T01:56:33.390Z,9.70
2022-09-21T01:59:30.448Z,9.60
2022-09-21T02:02:06.391Z,9.50
2022-09-21T02:04:35.293Z,9.40
2022-09-21T02:07:02.555Z,9.40
2022-09-21T02:09:30.074Z,9.40
2022-09-21T02:11:58.383Z,9.40
2022-09-21T02:14:26.113Z,9.30
2022-09-21T02:17:26.477Z,9.30
2022-09-21T02:20:03.138Z,9.40
2022-09-21T02:22:45.189Z,9.40
2022-09-21T02:25:37.965Z,9.40
2022-09-21T02:28:31.346Z,9.30
2022-09-21T02:31:13.992Z,9.20
2022-09-21T02:34:36.650Z,9.20
2022-09-21T02:37:32.728Z,9.10
2022-09-21T02:40:24.175Z,9.00
2022-09-21T02:42:56.628Z,9.10
2022-09-21T02:45:28.969Z,9.10
2022-09-21T02:48:00.479Z,9.10
2022-09-21T02:50:34.157Z,9.00
2022-09-21T02:53:03.950Z,8.90
2022-09-21T02:55:32.730Z,8.90
2022-09-21T02:58:03.349Z,8.90
2022-09-21T03:00:30.485Z,8.90
2022-09-21T03:02:57.298Z,8.80
2022-09-21T03:05:24.230Z,8.80
2022-09-21T03:07:51.258Z,8.80
2022-09-21T03:10:19.157Z,8.80
2022-09-21T03:12:46.961Z,8.80
2022-09-21T03:15:16.619Z,8.80
2022-09-21T03:17:43.547Z,8.70
2022-09-21T03:20:10.528Z,8.70
2022-09-21T03:22:37.457Z,8.60
2022-09-21T03:25:05.137Z,8.60
2022-09-21T03:27:32.489Z,8.50
2022-09-21T03:30:02.179Z,8.50
2022-09-21T03:32:29.604Z,8.50
2022-09-21T03:34:56.510Z,8.50
2022-09-21T03:37:23.280Z,8.50
2022-09-21T03:39:50.082Z,8.40
2022-09-21T03:42:16.989Z,8.50
2022-09-21T03:44:43.950Z,8.50
2022-09-21T03:47:10.852Z,8.40
2022-09-21T03:49:38.863Z,8.40
2022-09-21T03:52:05.748Z,8.40
2022-09-21T03:54:32.684Z,8.40
2022-09-21T03:56:59.620Z,8.40
2022-09-21T03:59:26.524Z,8.40
2022-09-21T04:01:53.550Z,8.40
2022-09-21T04:04:20.819Z,8.40
2022-09-21T04:06:47.734Z,8.40
2022-09-21T04:09:14.582Z,8.40
2022-09-21T04:11:41.971Z,8.40
2022-09-21T04:14:08.925Z,8.40
2022-09-21T04:16:36.093Z,8.40
2022-09-21T04:19:02.972Z,8.50
2022-09-21T04:21:30.140Z,8.50
2022-09-21T04:23:59.565Z,8.50
2022-09-21T04:26:32.444Z,8.60
2022-09-21T04:29:00.278Z,8.70
2022-09-21T04:31:28.610Z,8.80
2022-09-21T04:33:57.228Z,8.90
2022-09-21T04:36:26.377Z,9.00
2022-09-21T04:38:53.354Z,9.00
2022-09-21T04:41:20.475Z,9.00
2022-09-21T04:43:48.631Z,9.00
2022-09-21T04:46:18.881Z,9.00
2022-09-21T04:48:46.606Z,8.90
2022-09-21T04:51:15.159Z,8.90
2022-09-21T04:53:43.104Z,8.80
2022-09-21T04:56:12.955Z,8.80
2022-09-21T04:58:40.049Z,8.80
2022-09-21T05:01:07.756Z,8.80
2022-09-21T05:03:34.917Z,8.80
2022-09-21T05:06:02.690Z,8.70
2022-09-21T05:08:48.223Z,8.80
2022-09-21T05:11:19.122Z,8.80
2022-09-21T05:13:48.011Z,8.80
2022-09-21T05:16:16.116Z,8.80
2022-09-21T05:18:43.301Z,8.80
2022-09-21T05:21:12.257Z,8.70
2022-09-21T05:23:39.170Z,8.70
2022-09-21T05:26:06.516Z,8.60
2022-09-21T05:28:39.095Z,8.50
2022-09-21T05:31:31.353Z,8.40
2022-09-21T05:34:07.659Z,8.50
2022-09-21T05:36:34.995Z,8.40
2022-09-21T05:39:04.945Z,8.50
2022-09-21T05:41:32.080Z,8.50
2022-09-21T05:43:59.218Z,8.70
2022-09-21T05:46:31.873Z,9.00
2022-09-21T05:49:17.400Z,9.20
2022-09-21T05:51:56.994Z,9.40
2022-09-21T05:54:43.485Z,9.80
2022-09-21T05:57:34.723Z,10.10
2022-09-21T06:00:10.833Z,10.50
2022-09-21T06:03:00.043Z,10.80
2022-09-21T06:05:27.078Z,11.20
2022-09-21T06:07:53.857Z,11.60
2022-09-21T06:10:20.783Z,11.90
2022-09-21T06:12:47.577Z,12.30
2022-09-21T06:15:15.388Z,12.60
2022-09-21T06:17:42.683Z,13.00
2022-09-21T06:20:09.901Z,13.30
2022-09-21T06:22:36.678Z,13.60
2022-09-21T06:25:04.171Z,13.90
2022-09-21T06:27:31.126Z,14.20
2022-09-21T06:29:57.958Z,14.70
2022-09-21T06:32:24.948Z,15.20
2022-09-21T06:34:51.905Z,15.60
2022-09-21T06:37:19.019Z,15.90
2022-09-21T06:39:45.841Z,16.10
2022-09-21T06:42:12.651Z,16.30
2022-09-21T06:44:41.774Z,16.60
2022-09-21T06:47:08.748Z,16.80
2022-09-21T06:49:39.190Z,17.00
2022-09-21T06:52:08.733Z,17.30
2022-09-21T06:54:36.822Z,17.60
2022-09-21T06:57:03.948Z,17.80
2022-09-21T06:59:31.104Z,18.00
2022-09-21T07:01:58.582Z,18.10
2022-09-21T07:04:25.886Z,18.40
2022-09-21T07:06:52.710Z,18.50
2022-09-21T07:12:08.003Z,18.90
2022-09-21T07:14:34.944Z,19.30
2022-09-21T07:17:02.332Z,19.70
2022-09-21T07:19:29.141Z,20.00
2022-09-21T07:21:56.113Z,20.20
2022-09-21T07:24:22.993Z,20.50
2022-09-21T07:26:49.814Z,20.70
2022-09-21T07:29:16.730Z,20.90
2022-09-21T07:31:45.106Z,21.20
2022-09-21T07:34:12.208Z,21.40
2022-09-21T07:36:39.076Z,21.50
2022-09-21T07:39:06.438Z,21.60
2022-09-21T07:41:33.351Z,21.80
2022-09-21T07:44:00.234Z,21.80
2022-09-21T07:46:27.110Z,21.80
2022-09-21T07:48:55.110Z,21.90
2022-09-21T07:51:22.714Z,22.00
2022-09-21T07:53:56.796Z,22.10
2022-09-21T07:56:24.427Z,22.10
2022-09-21T07:59:06.336Z,22.00
2022-09-21T08:01:38.854Z,21.90
2022-09-21T08:04:10.617Z,21.70
2022-09-21T08:06:40.495Z,21.60
2022-09-21T08:09:08.470Z,21.70
2022-09-21T08:11:37.369Z,21.50
2022-09-21T08:14:04.829Z,21.70
2022-09-21T08:16:32.272Z,21.60
2022-09-21T08:18:59.853Z,21.70
2022-09-21T08:21:26.983Z,22.00
2022-09-21T08:23:54.145Z,22.40
2022-09-21T08:26:21.526Z,22.60
2022-09-21T08:28:51.661Z,22.60
2022-09-21T08:31:21.564Z,22.50
2022-09-21T08:33:50.132Z,22.60
2022-09-21T08:36:18.501Z,22.50
2022-09-21T08:38:45.923Z,22.50
2022-09-21T08:41:25.922Z,22.50
2022-09-21T08:44:14.097Z,22.50
2022-09-21T08:46:42.692Z,22.60
2022-09-21T08:49:19.641Z,22.70
2022-09-21T08:52:16.729Z,22.90
2022-09-21T08:54:56.407Z,22.80
2022-09-21T08:57:29.705Z,23.00
2022-09-21T08:59:57.420Z,23.00
2022-09-21T09:02:45.632Z,23.20
2022-09-21T09:05:30.464Z,23.60
2022-09-21T09:08:21.295Z,23.70
2022-09-21T09:11:13.013Z,24.10
2022-09-21T09:14:01.676Z,24.20
2022-09-21T09:16:46.534Z,24.40
2022-09-21T09:19:38.406Z,24.70
2022-09-21T09:22:11.737Z,24.90
2022-09-21T09:24:43.675Z,25.10
2022-09-21T09:27:22.783Z,25.20
2022-09-21T09:30:06.054Z,25.30
2022-09-21T09:33:02.343Z,25.40
2022-09-21T09:35:52.224Z,25.80
2022-09-21T09:38:38.527Z,26.20
2022-09-21T09:41:23.124Z,26.80
2022-09-21T09:44:19.486Z,26.60
2022-09-21T09:47:16.602Z,26.20
2022-09-21T09:50:08.522Z,26.00
2022-09-21T09:52:35.600Z,26.20
2022-09-21T09:55:39.042Z,26.40
2022-09-21T09:58:16.119Z,26.80
2022-09-21T10:00:43.090Z,27.00
2022-09-21T10:03:19.422Z,27.30
2022-09-21T10:05:47.148Z,27.80
2022-09-21T10:08:39.286Z,28.50
2022-09-21T10:11:06.413Z,29.30
2022-09-21T10:13:42.023Z,29.70
2022-09-21T10:16:17.856Z,30.10
2022-09-21T10:18:49.536Z,30.40
2022-09-21T10:21:18.376Z,30.60
2022-09-21T10:23:59.288Z,30.30
2022-09-21T10:26:34.737Z,30.00
2022-09-21T10:29:25.439Z,30.00
2022-09-21T10:32:00.722Z,30.20
2022-09-21T10:34:35.306Z,30.10
2022-09-21T10:37:23.249Z,30.00
2022-09-21T10:39:50.333Z,30.30
2022-09-21T10:42:19.209Z,30.60
2022-09-21T10:44:50.057Z,30.70
2022-09-21T10:47:30.665Z,30.60
2022-09-21T10:50:00.347Z,30.70
2022-09-21T10:52:44.050Z,30.70
2022-09-21T10:55:21.826Z,30.80
2022-09-21T10:57:51.058Z,30.90
2022-09-21T11:00:35.822Z,30.80
2022-09-21T11:03:26.815Z,31.10
2022-09-21T11:05:54.338Z,31.10
2022-09-21T11:08:34.295Z,31.50
2022-09-21T11:11:27.898Z,31.60
2022-09-21T11:14:04.840Z,31.30
2022-09-21T11:16:40.357Z,30.70
2022-09-21T11:19:35.312Z,30.00
2022-09-21T11:22:18.903Z,29.60
2022-09-21T11:25:04.378Z,28.10
2022-09-21T11:27:36.372Z,26.90
2022-09-21T11:30:09.642Z,26.60
2022-09-21T11:32:41.800Z,27.50
2022-09-21T11:35:20.765Z,28.20
2022-09-21T11:38:04.341Z,29.00
2022-09-21T11:40:54.426Z,29.80
2022-09-21T11:43:53.104Z,30.90
2022-09-21T11:46:50.923Z,31.00
2022-09-21T11:49:43.089Z,30.20
2022-09-21T11:52:35.292Z,30.00
2022-09-21T11:55:24.745Z,30.50
2022-09-21T11:57:55.203Z,30.60
2022-09-21T12:00:25.179Z,30.40
2022-09-21T12:03:07.416Z,30.60
2022-09-21T12:05:59.331Z,30.40
2022-09-21T12:09:03.252Z,28.80
2022-09-21T12:12:03.150Z,26.80
2022-09-21T12:17:40.986Z,26.50
2022-09-21T12:20:25.874Z,26.90
2022-09-21T12:23:00.764Z,27.70
2022-09-21T12:25:40.865Z,28.50
2022-09-21T12:28:45.014Z,28.50
2022-09-21T12:31:51.438Z,28.80
2022-09-21T12:34:23.276Z,28.70
2022-09-21T12:37:19.006Z,28.80
2022-09-21T12:40:19.379Z,28.80
2022-09-21T12:43:10.569Z,28.60
2022-09-21T12:45:48.027Z,28.80
2022-09-21T12:48:24.685Z,28.70
2022-09-21T12:51:16.395Z,28.90
2022-09-21T12:53:50.797Z,29.00
2022-09-21T12:56:44.357Z,28.80
2022-09-21T12:59:19.872Z,29.30
2022-09-21T13:01:57.174Z,29.60
2022-09-21T13:04:44.596Z,29.90
2022-09-21T13:07:46.758Z,30.30
2022-09-21T13:10:54.871Z,30.80
2022-09-21T13:13:56.099Z,30.80
2022-09-21T13:16:32.831Z,31.20
2022-09-21T13:19:06.885Z,31.40
2022-09-21T13:21:33.933Z,31.00
2022-09-21T13:24:06.135Z,30.40
2022-09-21T13:26:43.040Z,29.00
2022-09-21T13:29:19.357Z,28.40
2022-09-21T13:32:12.294Z,28.70
2022-09-21T13:34:42.836Z,29.30
2022-09-21T13:37:15.911Z,28.90
2022-09-21T13:39:57.796Z,28.10
2022-09-21T13:42:30.782Z,27.60
2022-09-21T13:44:59.511Z,26.70
2022-09-21T13:47:33.214Z,25.60
2022-09-21T13:50:10.547Z,24.60
2022-09-21T13:52:44.094Z,24.60
2022-09-21T13:55:38.712Z,25.30
2022-09-21T13:58:23.733Z,26.20
2022-09-21T14:01:35.384Z,27.40
2022-09-21T14:04:06.496Z,28.50
2022-09-21T14:06:44.061Z,28.80
2022-09-21T14:09:41.611Z,29.40
2022-09-21T14:12:19.224Z,29.80
2022-09-21T14:15:12.797Z,29.90
2022-09-21T14:17:40.828Z,30.00
2022-09-21T14:20:30.768Z,29.90
2022-09-21T14:23:22.468Z,29.70
2022-09-21T14:25:56.643Z,29.00
2022-09-21T14:28:53.354Z,29.10
2022-09-21T14:31:29.364Z,29.80
2022-09-21T14:33:59.897Z,30.00
2022-09-21T14:36:41.431Z,29.90
2022-09-21T14:39:19.328Z,29.00
2022-09-21T14:41:49.647Z,28.60
2022-09-21T14:44:28.208Z,28.10
2022-09-21T14:47:11.315Z,27.10
2022-09-21T14:49:51.382Z,26.00
2022-09-21T14:52:38.165Z,24.90
2022-09-21T14:55:21.730Z,24.70
2022-09-21T14:58:03.692Z,24.70
2022-09-21T15:01:20.425Z,24.40
2022-09-21T15:04:19.022Z,24.40
2022-09-21T15:07:35.710Z,25.20
2022-09-21T15:10:45.536Z,26.40
2022-09-21T15:14:06.182Z,27.10
2022-09-21T15:16:44.333Z,27.50
2022-09-21T15:19:27.181Z,27.90
2022-09-21T15:22:15.603Z,28.40
2022-09-21T15:24:53.204Z,28.70
2022-09-21T15:27:23.810Z,28.70
2022-09-21T15:29:56.963Z,28.50
2022-09-21T15:32:42.920Z,28.30
2022-09-21T15:35:22.095Z,28.30
2022-09-21T15:37:51.355Z,28.20
2022-09-21T15:40:33.983Z,28.30
2022-09-21T15:43:19.702Z,28.40
2022-09-21T15:46:05.186Z,28.40
2022-09-21T15:48:41.184Z,28.50
2022-09-21T15:51:27.112Z,28.80
2022-09-21T15:54:14.057Z,28.90
2022-09-21T15:56:44.423Z,28.70
2022-09-21T15:59:18.215Z,28.70
2022-09-21T16:01:49.391Z,28.70
2022-09-21T16:04:24.925Z,28.10
2022-09-21T16:07:06.905Z,27.60
2022-09-21T16:09:39.049Z,27.30
2022-09-21T16:12:32.633Z,26.90
2022-09-21T16:15:08.903Z,26.70
2022-09-21T16:17:38.011Z,26.60
2022-09-21T16:20:10.317Z,26.40
2022-09-21T16:23:16.760Z,26.00
2022-09-21T16:26:02.150Z,25.30
2022-09-21T16:28:36.405Z,24.80
2022-09-21T16:38:25.767Z,24.20
2022-09-21T16:41:14.483Z,23.70
2022-09-21T16:43:44.171Z,23.00
2022-09-21T16:46:11.852Z,22.60
2022-09-21T16:48:40.198Z,22.30
2022-09-21T16:51:14.043Z,22.00
2022-09-21T16:53:41.397Z,21.70
2022-09-21T16:56:16.122Z,21.30
2022-09-21T16:58:44.274Z,20.80
2022-09-21T17:01:18.200Z,20.30
2022-09-21T17:03:47.346Z,19.90
2022-09-21T17:06:19.372Z,19.50
2022-09-21T17:08:48.404Z,19.20
2022-09-21T17:11:20.393Z,18.80
2022-09-21T17:13:48.536Z,18.60
2022-09-21T17:16:18.303Z,18.30
2022-09-21T17:18:46.276Z,18.00
2022-09-21T17:21:13.965Z,17.80
2022-09-21T17:23:42.462Z,17.50
2022-09-21T17:26:19.457Z,17.30
2022-09-21T17:28:46.725Z,17.10
2022-09-21T17:31:17.538Z,16.90
2022-09-21T17:33:46.164Z,16.80
2022-09-21T17:36:19.559Z,16.60
2022-09-21T17:38:46.581Z,16.40
2022-09-21T17:41:42.513Z,16.20
2022-09-21T17:44:29.762Z,16.00
2022-09-21T17:47:22.140Z,15.80
2022-09-21T17:49:53.484Z,15.50
2022-09-21T17:52:43.429Z,15.40
2022-09-21T17:55:12.918Z,15.20
2022-09-21T17:57:46.281Z,15.00
2022-09-21T18:00:50.576Z,14.80
2022-09-21T18:03:26.104Z,14.60
2022-09-21T18:06:12.848Z,14.40
2022-09-21T18:08:42.759Z,14.20
2022-09-21T18:11:41.946Z,14.10
2022-09-21T18:14:29.271Z,14.00
2022-09-21T18:17:33.078Z,13.90
2022-09-21T18:20:10.396Z,13.70
2022-09-21T18:22:59.644Z,13.60
2022-09-21T18:25:31.290Z,13.50
2022-09-21T18:28:00.463Z,13.40
2022-09-21T18:30:27.913Z,13.20
2022-09-21T18:33:16.911Z,13.20
2022-09-21T18:35:50.113Z,13.10
2022-09-21T18:38:43.479Z,12.90
2022-09-21T18:41:34.086Z,12.70
2022-09-21T18:44:14.447Z,12.60
2022-09-21T18:46:59.454Z,12.50
2022-09-21T18:49:47.862Z,12.40
2022-09-21T18:52:30.583Z,12.30
2022-09-21T18:54:57.744Z,12.30
2022-09-21T18:57:25.397Z,12.20
2022-09-21T18:59:52.651Z,12.10
2022-09-21T19:02:22.927Z,12.00
2022-09-21T19:04:50.624Z,12.10
2022-09-21T19:07:51.896Z,12.00
2022-09-21T19:10:30.823Z,12.00
2022-09-21T19:13:19.590Z,12.00
2022-09-21T19:16:01.499Z,11.90
2022-09-21T19:18:52.789Z,11.80
2022-09-21T19:21:27.385Z,11.70
2022-09-21T19:24:15.037Z,11.60
2022-09-21T19:26:47.879Z,11.60
2022-09-21T19:29:31.004Z,11.60
2022-09-21T19:32:16.457Z,11.50
2022-09-21T19:34:44.467Z,11.40
2022-09-21T19:37:11.711Z,11.40
2022-09-21T19:39:39.295Z,11.30
2022-09-21T19:42:29.894Z,11.20
2022-09-21T19:48:48.014Z,11.20
2022-09-21T19:51:34.138Z,11.00
2022-09-21T19:54:21.110Z,10.90
2022-09-21T19:57:12.256Z,10.90
2022-09-21T19:59:45.112Z,10.80
2022-09-21T20:02:18.584Z,10.80
2022-09-21T20:04:50.601Z,10.70
2022-09-21T20:07:52.103Z,10.70
2022-09-21T20:10:34.479Z,10.60
2022-09-21T20:13:01.567Z,10.60
2022-09-21T20:15:37.752Z,10.60
2022-09-21T20:18:24.235Z,10.60
2022-09-21T20:20:54.778Z,10.60
2022-09-21T20:23:21.872Z,10.60
2022-09-21T20:25:51.332Z,10.60
2022-09-21T20:28:18.490Z,10.60
2022-09-21T20:30:48.368Z,10.60
2022-09-21T20:33:22.525Z,10.50
2022-09-21T20:35:53.089Z,10.50
2022-09-21T20:38:20.005Z,10.50
2022-09-21T20:40:47.326Z,10.50
2022-09-21T20:43:14.336Z,10.50
2022-09-21T20:45:47.878Z,10.40
2022-09-21T20:48:15.822Z,10.40
2022-09-21T20:50:46.084Z,10.30
2022-09-21T20:53:14.161Z,10.30
2022-09-21T20:55:43.204Z,10.30
2022-09-21T20:58:18.536Z,10.20
2022-09-21T21:00:46.255Z,10.20
2022-09-21T21:03:13.629Z,10.10
2022-09-21T21:05:40.996Z,10.10
2022-09-21T21:08:09.089Z,10.10
2022-09-21T21:10:37.187Z,10.00
2022-09-21T21:13:05.412Z,9.90
2022-09-21T21:15:35.953Z,9.90
2022-09-21T21:18:02.876Z,9.80
2022-09-21T21:20:31.767Z,9.80
2022-09-21T21:22:59.138Z,9.70
2022-09-21T21:25:26.157Z,9.70
2022-09-21T21:27:57.399Z,9.70
2022-09-21T21:30:25.340Z,9.70
2022-09-21T21:32:53.280Z,9.70
2022-09-21T21:35:20.397Z,9.60
2022-09-21T21:37:47.638Z,9.60
2022-09-21T21:40:15.174Z,9.60
2022-09-21T21:42:45.235Z,9.60
2022-09-21T21:45:12.241Z,9.60
2022-09-21T21:47:40.599Z,9.60
2022-09-21T21:50:09.830Z,9.70
2022-09-21T21:52:37.401Z,9.70
2022-09-21T21:55:06.326Z,9.80
2022-09-21T21:57:33.400Z,9.80
2022-09-21T22:06:06.780Z,9.70
2022-09-21T22:08:35.413Z,9.60
2022-09-21T22:11:02.917Z,9.50
2022-09-21T22:13:34.890Z,9.50
2022-09-21T22:16:07.707Z,9.40
2022-09-21T22:18:38.554Z,9.40
2022-09-21T22:21:08.986Z,9.40
2022-09-21T22:23:36.517Z,9.40
2022-09-21T22:26:05.309Z,9.40
2022-09-21T22:28:33.285Z,9.40
2022-09-21T22:31:01.915Z,9.50
2022-09-21T22:36:27.297Z,9.50
2022-09-21T22:38:55.363Z,9.50
2022-09-21T22:41:29.910Z,9.50
2022-09-21T22:44:02.127Z,9.50
2022-09-21T22:46:30.175Z,9.50
2022-09-21T22:48:57.287Z,9.40
2022-09-21T22:51:24.316Z,9.30
2022-09-21T22:53:51.583Z,9.30
2022-09-21T22:56:26.773Z,9.30
2022-09-21T22:58:56.124Z,9.30
2022-09-21T23:04:18.699Z,9.40
2022-09-21T23:06:46.510Z,9.50
2022-09-21T23:09:16.877Z,9.50
2022-09-21T23:11:47.492Z,9.60
2022-09-21T23:14:16.796Z,9.50
2022-09-21T23:16:44.004Z,9.50
2022-09-21T23:19:15.810Z,9.60
2022-09-21T23:21:45.818Z,9.50
2022-09-21T23:24:13.473Z,9.50
2022-09-21T23:26:40.623Z,9.40
2022-09-21T23:29:12.626Z,9.40
2022-09-21T23:31:44.480Z,9.40
2022-09-21T23:34:15.214Z,9.30
2022-09-21T23:36:43.503Z,9.30
2022-09-21T23:39:12.711Z,9.30
2022-09-21T23:41:39.994Z,9.20
2022-09-21T23:44:07.510Z,9.20
2022-09-21T23:46:36.715Z,9.20
2022-09-21T23:49:04.493Z,9.20
2022-09-21T23:51:31.684Z,9.10
2022-09-21T23:53:59.522Z,9.10
2022-09-21T23:56:26.978Z,9.10
2022-09-21T23:58:53.928Z,9.00
